(Default Airport = EGHI - Southampton International)

METAR = EGHI 251320Z 15007KT 110V220 9999 FEW048 22/10 Q1035

STATION........ EGHI
OBSERVED....... Mon May 25, 14:20 BST
NOW............ Tue May 26, 01:15 BST
AGE............ 10:55 hr ago
WIND........... SSE at 8 mph
VISIBILITY..... 16 miles
CLOUDS......... partly cloudy
TEMP........... 72°F (22°C)
DEWPT.......... 50°F (10°C)
HUMIDITY....... 47%
BAROMETER...... 1035 hPa (30.56 in Hg)


    Get Weather Info from Airport: